Time;durP1;ratioP1;P1;durP2;ratioP2;P2;SDS_P1;SDS_P2;PMS_P1;PMS_P2;Temp;Humidity;BMP_temperature;BMP_pressure;BME280_temperature;BME280_humidity;BME280_pressure;Samples;Min_cycle;Max_cycle;Signal;HPM_P1;HPM_P2
2020/12/10 00:00:25;;;;;;;14.15;7.85;;;3.20;99.90;;;;;;5031723;28;20250;-76
2020/12/10 00:02:52;;;;;;;14.27;6.90;;;3.10;99.90;;;;;;5031854;28;20212;-77
2020/12/10 00:05:19;;;;;;;12.60;6.50;;;3.10;99.90;;;;;;5031691;28;20200;-75
2020/12/10 00:07:45;;;;;;;16.25;7.53;;;3.00;99.90;;;;;;5031699;28;20557;-75
2020/12/10 00:10:11;;;;;;;14.02;6.63;;;3.00;99.90;;;;;;5031519;28;20196;-74
2020/12/10 00:12:42;;;;;;;15.07;6.18;;;3.00;99.90;;;;;;5031797;28;20611;-75
2020/12/10 00:15:09;;;;;;;15.63;7.22;;;2.90;99.90;;;;;;5029104;28;20224;-76
2020/12/10 00:17:35;;;;;;;9.80;5.55;;;2.90;99.90;;;;;;5031887;28;20216;-75
2020/12/10 00:20:05;;;;;;;17.85;6.82;;;2.90;99.90;;;;;;5031660;28;21495;-77
2020/12/10 00:22:33;;;;;;;14.68;6.07;;;2.90;99.90;;;;;;5029453;28;20230;-75
2020/12/10 00:25:00;;;;;;;16.15;6.57;;;2.90;99.90;;;;;;5038127;28;20204;-84
2020/12/10 00:27:26;;;;;;;9.70;6.38;;;2.80;99.90;;;;;;5036530;28;20753;-74
2020/12/10 00:29:57;;;;;;;12.60;6.30;;;2.80;99.90;;;;;;5035665;28;20222;-71
2020/12/10 00:32:23;;;;;;;11.13;5.95;;;3.00;99.90;;;;;;5035272;28;20232;-73
2020/12/10 00:34:50;;;;;;;14.88;7.18;;;3.10;99.90;;;;;;5035060;28;20231;-70
2020/12/10 00:37:17;;;;;;;11.27;5.75;;;3.10;99.90;;;;;;5034745;28;20224;-71
2020/12/10 00:39:45;;;;;;;14.30;6.80;;;3.20;99.90;;;;;;5035469;28;20210;-73
2020/12/10 00:42:11;;;;;;;14.45;6.38;;;3.30;99.90;;;;;;5035319;28;20230;-72
2020/12/10 00:44:37;;;;;;;15.85;5.80;;;3.30;99.90;;;;;;5034804;28;20708;-73
2020/12/10 00:47:04;;;;;;;15.20;6.57;;;3.50;99.90;;;;;;5034879;28;20576;-72
2020/12/10 00:49:30;;;;;;;11.23;5.80;;;3.40;99.90;;;;;;5035169;28;20199;-71
2020/12/10 00:51:57;;;;;;;14.90;7.85;;;3.40;99.90;;;;;;5034956;28;20231;-70
2020/12/10 00:54:24;;;;;;;15.27;7.28;;;3.30;99.90;;;;;;5034914;28;20212;-71
2020/12/10 00:56:50;;;;;;;12.82;6.65;;;3.20;99.90;;;;;;5034474;28;20620;-71
2020/12/10 00:59:17;;;;;;;13.20;6.28;;;3.20;99.90;;;;;;5034798;28;20208;-71
2020/12/10 01:01:44;;;;;;;22.50;6.55;;;3.00;99.90;;;;;;5034893;28;20224;-72
2020/12/10 01:04:11;;;;;;;16.17;6.25;;;2.90;99.90;;;;;;5034595;28;20215;-73
2020/12/10 01:06:38;;;;;;;12.18;6.68;;;2.90;99.90;;;;;;5034306;28;20327;-72
2020/12/10 01:09:06;;;;;;;13.32;6.40;;;2.80;99.90;;;;;;5034582;28;20219;-71
2020/12/10 01:11:33;;;;;;;14.77;7.00;;;2.70;99.90;;;;;;5034913;28;20204;-70
2020/12/10 01:13:59;;;;;;;21.67;7.05;;;2.80;99.90;;;;;;5034479;28;20570;-71
2020/12/10 01:16:26;;;;;;;20.42;7.38;;;3.00;99.90;;;;;;5034185;28;20208;-70
2020/12/10 01:18:53;;;;;;;17.30;7.53;;;3.00;99.90;;;;;;5034347;28;20204;-72
2020/12/10 01:21:27;;;;;;;13.18;6.30;;;2.90;99.90;;;;;;5034652;28;20663;-72
2020/12/10 01:23:54;;;;;;;11.15;4.95;;;2.90;99.90;;;;;;5034213;28;20704;-70
2020/12/10 01:26:21;;;;;;;16.63;6.82;;;3.00;99.90;;;;;;5033926;28;20238;-72
2020/12/10 01:28:48;;;;;;;12.95;5.85;;;3.00;99.90;;;;;;5034290;28;20552;-71
2020/12/10 01:31:14;;;;;;;9.55;5.82;;;3.00;99.90;;;;;;5034520;28;20235;-71
2020/12/10 01:33:41;;;;;;;14.35;6.90;;;2.90;99.90;;;;;;5033889;28;20586;-72
2020/12/10 01:36:07;;;;;;;14.52;5.90;;;2.90;99.90;;;;;;5033854;28;20208;-71
2020/12/10 01:38:33;;;;;;;13.32;5.90;;;2.90;99.90;;;;;;5033219;28;20232;-72
2020/12/10 01:40:59;;;;;;;16.80;6.38;;;3.00;99.90;;;;;;5034053;28;20673;-72
2020/12/10 01:43:26;;;;;;;16.67;6.68;;;3.00;99.90;;;;;;5033790;28;20224;-72
2020/12/10 01:45:53;;;;;;;10.80;6.10;;;3.00;99.90;;;;;;5033608;28;20208;-71
2020/12/10 01:48:19;;;;;;;15.23;7.03;;;2.90;99.90;;;;;;5034037;28;20539;-70
2020/12/10 01:50:46;;;;;;;18.20;6.05;;;2.90;99.90;;;;;;5034347;28;20234;-73
2020/12/10 01:53:12;;;;;;;23.75;7.25;;;2.90;99.90;;;;;;5033902;28;20259;-72
2020/12/10 01:55:38;;;;;;;13.52;6.72;;;2.80;99.90;;;;;;5033266;28;20208;-71
2020/12/10 01:58:05;;;;;;;16.30;6.20;;;2.90;99.90;;;;;;5033508;28;20230;-70
2020/12/10 02:00:31;;;;;;;15.68;6.95;;;2.80;99.90;;;;;;5033906;28;20211;-71
2020/12/10 02:02:58;;;;;;;12.43;6.00;;;2.80;99.90;;;;;;5033014;28;20310;-71
2020/12/10 02:05:25;;;;;;;16.75;7.63;;;2.80;99.90;;;;;;5033434;28;20207;-71
2020/12/10 02:07:51;;;;;;;18.02;6.97;;;2.80;99.90;;;;;;5033603;28;20204;-73
2020/12/10 02:10:17;;;;;;;12.93;5.90;;;2.80;99.90;;;;;;5034055;28;20211;-73
2020/12/10 02:12:44;;;;;;;9.75;5.03;;;3.00;99.90;;;;;;5033558;28;20234;-73
2020/12/10 02:15:10;;;;;;;14.73;6.72;;;3.10;99.90;;;;;;5033227;28;20291;-73
2020/12/10 02:17:37;;;;;;;13.30;5.95;;;3.20;99.90;;;;;;5032676;28;20311;-74
2020/12/10 02:20:05;;;;;;;14.48;6.35;;;3.20;99.90;;;;;;5033386;28;20200;-74
2020/12/10 02:22:31;;;;;;;15.60;6.97;;;3.30;99.90;;;;;;5033184;28;20212;-74
2020/12/10 02:24:59;;;;;;;15.55;7.10;;;3.40;99.90;;;;;;5032926;28;20746;-74
2020/12/10 02:27:25;;;;;;;17.15;6.15;;;3.50;99.90;;;;;;5032359;28;20188;-74
2020/12/10 02:29:52;;;;;;;14.82;7.03;;;3.50;99.90;;;;;;5032646;28;20658;-72
2020/12/10 02:32:18;;;;;;;16.17;6.03;;;3.50;99.90;;;;;;5032776;28;20224;-73
2020/12/10 02:34:44;;;;;;;12.07;6.50;;;3.60;99.90;;;;;;5032852;28;20287;-70
2020/12/10 02:37:11;;;;;;;18.83;6.40;;;3.50;99.90;;;;;;5032819;28;20690;-70
2020/12/10 02:39:37;;;;;;;16.65;7.18;;;3.50;99.90;;;;;;5032988;28;20196;-72
2020/12/10 02:42:04;;;;;;;16.80;6.80;;;3.50;99.90;;;;;;5032662;28;20220;-72
2020/12/10 02:44:30;;;;;;;11.73;5.47;;;3.30;99.90;;;;;;5032340;28;20294;-72
2020/12/10 02:46:57;;;;;;;16.45;6.93;;;3.20;99.90;;;;;;5032573;28;20244;-71
2020/12/10 02:49:23;;;;;;;14.00;6.25;;;3.20;99.90;;;;;;5032573;28;20207;-71
2020/12/10 02:51:49;;;;;;;13.45;6.22;;;3.20;99.90;;;;;;5032524;28;20578;-71
2020/12/10 02:54:15;;;;;;;13.98;6.70;;;3.10;99.90;;;;;;5030047;28;20210;-70
2020/12/10 02:56:43;;;;;;;17.83;6.78;;;3.10;99.90;;;;;;5032116;28;20591;-70
2020/12/10 02:59:10;;;;;;;20.90;7.68;;;3.10;99.90;;;;;;5032330;28;20200;-70
2020/12/10 03:01:36;;;;;;;13.32;6.63;;;3.10;99.90;;;;;;5029907;28;20199;-70
2020/12/10 03:04:03;;;;;;;15.57;6.20;;;2.90;99.90;;;;;;5032250;28;20683;-70
2020/12/10 03:06:29;;;;;;;18.42;7.47;;;2.80;99.90;;;;;;5032176;28;20291;-71
2020/12/10 03:08:57;;;;;;;14.05;6.47;;;2.70;99.90;;;;;;5029814;28;20531;-70
2020/12/10 03:11:24;;;;;;;11.75;6.25;;;2.60;99.90;;;;;;5032180;28;20207;-70
2020/12/10 03:13:50;;;;;;;12.23;6.15;;;2.60;99.90;;;;;;5032135;28;20477;-71
2020/12/10 03:16:17;;;;;;;13.77;6.80;;;2.70;99.90;;;;;;5031871;28;20201;-70
2020/12/10 03:18:43;;;;;;;19.00;7.57;;;2.70;99.90;;;;;;5032257;28;20230;-70
2020/12/10 03:21:10;;;;;;;16.10;6.82;;;2.60;99.90;;;;;;5032126;28;20200;-70
2020/12/10 03:23:36;;;;;;;13.93;7.00;;;2.70;99.90;;;;;;5026660;28;20303;-70
2020/12/10 03:26:02;;;;;;;18.75;6.75;;;2.70;99.90;;;;;;5031741;28;20689;-71
2020/12/10 03:28:28;;;;;;;12.13;5.75;;;2.60;99.90;;;;;;5032255;28;20192;-70
2020/12/10 03:30:55;;;;;;;11.88;6.50;;;2.60;99.90;;;;;;5031861;28;20666;-70
2020/12/10 03:33:22;;;;;;;16.70;6.70;;;2.70;99.90;;;;;;5031571;28;20296;-71
2020/12/10 03:35:48;;;;;;;8.60;5.65;;;2.80;99.90;;;;;;5031864;28;20206;-71
2020/12/10 03:38:14;;;;;;;11.57;6.30;;;2.80;99.90;;;;;;5031320;28;20226;-71
2020/12/10 03:40:41;;;;;;;13.60;6.55;;;3.00;99.90;;;;;;5031681;28;20203;-69
2020/12/10 03:43:07;;;;;;;26.27;7.00;;;3.00;99.90;;;;;;5031604;28;20216;-70
2020/12/10 03:45:33;;;;;;;16.77;7.45;;;3.00;99.90;;;;;;5031922;28;20196;-71
2020/12/10 03:48:00;;;;;;;15.65;6.72;;;3.00;99.90;;;;;;5029216;28;20665;-70
2020/12/10 03:50:27;;;;;;;18.42;6.72;;;3.10;99.90;;;;;;5032094;28;20626;-72
2020/12/10 03:52:53;;;;;;;13.10;7.20;;;3.10;99.90;;;;;;5031646;28;20246;-70
2020/12/10 03:55:20;;;;;;;14.95;6.45;;;3.00;99.90;;;;;;5028856;28;20292;-73
2020/12/10 03:57:46;;;;;;;19.13;6.70;;;3.00;99.90;;;;;;5033383;28;20227;-70
2020/12/10 04:00:12;;;;;;;14.15;5.43;;;3.00;99.90;;;;;;5033717;28;20615;-70
2020/12/10 04:02:39;;;;;;;20.63;7.15;;;3.00;99.90;;;;;;5034966;28;20226;-70
2020/12/10 04:05:05;;;;;;;13.13;6.55;;;3.20;99.90;;;;;;5037172;28;20204;-71
2020/12/10 04:07:32;;;;;;;18.30;7.53;;;3.30;99.90;;;;;;5037586;28;20206;-70
2020/12/10 04:09:58;;;;;;;17.35;6.88;;;3.40;99.90;;;;;;5037189;28;20214;-70
2020/12/10 04:12:25;;;;;;;13.75;7.25;;;3.50;99.90;;;;;;5037206;28;20690;-70
2020/12/10 04:14:51;;;;;;;16.63;6.35;;;3.60;99.90;;;;;;5036847;28;20659;-70
2020/12/10 04:17:17;;;;;;;15.52;6.07;;;3.70;99.90;;;;;;5037138;28;20230;-69
2020/12/10 04:19:43;;;;;;;14.68;7.13;;;3.80;99.90;;;;;;5037240;28;20688;-70
2020/12/10 04:22:10;;;;;;;18.05;7.85;;;3.90;99.90;;;;;;5036934;28;20261;-70
2020/12/10 04:24:37;;;;;;;13.50;5.95;;;4.00;99.90;;;;;;5037072;28;20565;-71
2020/12/10 04:27:03;;;;;;;14.50;7.00;;;3.90;99.90;;;;;;5036777;28;20210;-70
2020/12/10 04:29:30;;;;;;;15.05;6.90;;;3.80;99.90;;;;;;5037022;28;20559;-70
2020/12/10 04:31:56;;;;;;;18.55;6.75;;;3.80;99.90;;;;;;5037045;28;20238;-70
2020/12/10 04:34:22;;;;;;;16.52;6.75;;;3.70;99.90;;;;;;5037306;28;20228;-70
2020/12/10 04:36:48;;;;;;;11.98;5.72;;;3.50;99.90;;;;;;5036759;28;20201;-70
2020/12/10 04:39:15;;;;;;;18.63;7.80;;;3.50;99.90;;;;;;5036398;28;20210;-70
2020/12/10 04:41:45;;;;;;;19.55;7.82;;;3.30;99.90;;;;;;5036544;28;20208;-70
2020/12/10 04:44:11;;;;;;;13.93;6.50;;;3.40;99.90;;;;;;5036628;28;20681;-70
2020/12/10 04:46:39;;;;;;;11.45;6.25;;;3.30;99.90;;;;;;5036680;28;20553;-70
2020/12/10 04:49:05;;;;;;;13.70;6.35;;;3.30;99.90;;;;;;5036481;28;20203;-69
2020/12/10 04:51:34;;;;;;;15.40;6.85;;;3.20;99.90;;;;;;5036790;28;20204;-70
2020/12/10 04:54:01;;;;;;;15.27;5.93;;;3.20;99.90;;;;;;5036612;28;20200;-70
2020/12/10 04:56:28;;;;;;;11.60;7.20;;;3.20;99.90;;;;;;5036487;28;20204;-69
2020/12/10 04:58:55;;;;;;;12.57;7.60;;;3.30;99.90;;;;;;5036228;28;20223;-70
2020/12/10 05:01:22;;;;;;;17.33;7.25;;;3.40;99.90;;;;;;5036596;28;20291;-70
2020/12/10 05:03:49;;;;;;;14.32;7.45;;;3.50;99.90;;;;;;5036419;28;20752;-69
2020/12/10 05:06:16;;;;;;;22.10;7.03;;;3.40;99.90;;;;;;5035741;28;20201;-69
2020/12/10 05:08:44;;;;;;;15.80;6.47;;;3.40;99.90;;;;;;5036178;28;20206;-69
2020/12/10 05:11:11;;;;;;;13.23;6.30;;;3.30;99.90;;;;;;5036032;28;20650;-69
2020/12/10 05:13:38;;;;;;;21.08;7.97;;;3.40;99.90;;;;;;5036036;28;20694;-70
2020/12/10 05:16:19;;;;;;;15.65;6.38;;;3.50;99.90;;;;;;5036188;28;20215;-70
2020/12/10 05:18:45;;;;;;;12.88;7.13;;;3.60;99.90;;;;;;5035966;28;20231;-70
2020/12/10 05:21:15;;;;;;;23.48;7.35;;;3.70;99.90;;;;;;5035696;28;20220;-70
2020/12/10 05:23:41;;;;;;;17.33;6.95;;;3.60;99.90;;;;;;5035763;28;20231;-70
2020/12/10 05:26:08;;;;;;;19.33;8.73;;;3.50;99.90;;;;;;5035997;28;20558;-69
2020/12/10 05:28:42;;;;;;;17.23;8.20;;;3.60;99.90;;;;;;5036118;28;20200;-69
2020/12/10 05:31:11;;;;;;;16.50;7.75;;;3.70;99.90;;;;;;5035803;28;20207;-70
2020/12/10 05:33:52;;;;;;;20.95;8.93;;;3.70;99.90;;;;;;5035688;28;20220;-70
2020/12/10 05:36:18;;;;;;;13.48;6.93;;;3.70;99.90;;;;;;5035509;28;20673;-70
2020/12/10 05:39:02;;;;;;;16.65;7.00;;;3.60;99.90;;;;;;5035689;28;20234;-70
2020/12/10 05:41:29;;;;;;;16.48;6.63;;;3.70;99.90;;;;;;5035759;28;20263;-69
2020/12/10 05:43:55;;;;;;;16.63;7.45;;;3.50;99.90;;;;;;5035236;28;20208;-70
2020/12/10 05:46:24;;;;;;;13.68;7.40;;;3.40;99.90;;;;;;5035109;28;20213;-70
2020/12/10 05:48:51;;;;;;;13.50;6.45;;;3.50;99.90;;;;;;5035524;28;20206;-70
2020/12/10 05:51:20;;;;;;;21.80;6.90;;;3.50;99.90;;;;;;5035282;28;20226;-70
2020/12/10 05:53:48;;;;;;;14.88;6.85;;;3.50;99.90;;;;;;5035128;28;20588;-70
2020/12/10 05:56:15;;;;;;;19.42;6.45;;;3.40;99.90;;;;;;5034858;28;20287;-70
2020/12/10 05:58:49;;;;;;;11.95;6.43;;;3.30;99.90;;;;;;5034957;28;20235;-70
2020/12/10 06:01:32;;;;;;;19.92;5.68;;;3.40;99.90;;;;;;5035116;28;20207;-69
2020/12/10 06:03:58;;;;;;;12.25;5.72;;;3.40;99.90;;;;;;5035326;28;20655;-70
2020/12/10 06:06:28;;;;;;;14.70;6.28;;;3.50;99.90;;;;;;5034575;28;20211;-69
2020/12/10 06:09:00;;;;;;;11.38;4.82;;;3.40;99.90;;;;;;5034991;28;20212;-70
2020/12/10 06:11:28;;;;;;;13.85;5.43;;;3.30;99.90;;;;;;5034794;28;20223;-70
2020/12/10 06:14:01;;;;;;;14.50;6.53;;;3.30;99.90;;;;;;5034844;28;20569;-70
2020/12/10 06:16:28;;;;;;;13.48;7.25;;;3.30;99.90;;;;;;5034970;28;20216;-70
2020/12/10 06:19:03;;;;;;;19.25;7.13;;;3.20;99.90;;;;;;5034668;28;20231;-70
2020/12/10 06:21:40;;;;;;;13.60;6.93;;;3.10;99.90;;;;;;5034769;28;20673;-70
2020/12/10 06:24:32;;;;;;;14.02;6.25;;;3.10;99.90;;;;;;5035003;28;20275;-70
2020/12/10 06:26:59;;;;;;;23.70;6.63;;;3.30;99.90;;;;;;5035034;28;20211;-70
2020/12/10 06:29:26;;;;;;;13.38;6.78;;;3.30;99.90;;;;;;5034970;28;20238;-70
2020/12/10 06:32:11;;;;;;;12.57;5.65;;;3.40;99.90;;;;;;5034119;28;20706;-70
2020/12/10 06:34:43;;;;;;;11.00;6.13;;;3.50;99.90;;;;;;5034344;28;20208;-70
2020/12/10 06:37:17;;;;;;;10.57;5.72;;;3.50;99.90;;;;;;5034681;28;20215;-70
2020/12/10 06:39:43;;;;;;;14.70;6.25;;;3.60;99.90;;;;;;5034782;28;20214;-70
2020/12/10 06:42:10;;;;;;;16.17;6.82;;;3.70;99.90;;;;;;5034270;28;20220;-70
2020/12/10 06:44:37;;;;;;;10.95;5.50;;;3.60;99.90;;;;;;5034282;28;20210;-70
2020/12/10 06:47:03;;;;;;;15.15;5.72;;;3.50;99.90;;;;;;5034502;28;20218;-70
2020/12/10 06:49:32;;;;;;;13.00;5.38;;;3.60;99.90;;;;;;5034377;28;20692;-70
2020/12/10 06:52:10;;;;;;;10.40;6.65;;;3.60;99.90;;;;;;5034319;28;20314;-70
2020/12/10 06:54:51;;;;;;;12.50;6.80;;;3.50;99.90;;;;;;5033963;28;20286;-69
2020/12/10 06:57:18;;;;;;;14.20;6.88;;;3.50;99.90;;;;;;5033925;28;20674;-70
2020/12/10 06:59:44;;;;;;;18.63;6.82;;;3.50;99.90;;;;;;5034493;28;20291;-69
2020/12/10 07:02:12;;;;;;;17.50;7.03;;;3.60;99.90;;;;;;5033794;28;20230;-70
2020/12/10 07:04:47;;;;;;;18.33;8.30;;;3.70;99.90;;;;;;5034031;28;20575;-70
2020/12/10 07:07:16;;;;;;;13.18;6.55;;;3.70;99.90;;;;;;5034119;28;20231;-70
2020/12/10 07:09:50;;;;;;;19.20;6.47;;;3.50;99.90;;;;;;5034035;28;20210;-70
2020/12/10 07:12:21;;;;;;;17.55;6.00;;;3.30;99.90;;;;;;5034326;28;20373;-70
2020/12/10 07:14:48;;;;;;;13.98;6.25;;;3.40;99.90;;;;;;5034208;28;20204;-70
2020/12/10 07:17:14;;;;;;;13.48;6.05;;;3.60;99.90;;;;;;5034007;28;20223;-70
2020/12/10 07:19:42;;;;;;;13.18;5.97;;;3.70;99.90;;;;;;5034185;28;20294;-70
2020/12/10 07:22:08;;;;;;;10.13;5.53;;;3.80;99.90;;;;;;5033968;28;20230;-70
2020/12/10 07:24:34;;;;;;;16.70;7.20;;;3.90;99.90;;;;;;5034082;28;20210;-70
2020/12/10 07:27:01;;;;;;;14.52;7.43;;;3.80;99.90;;;;;;5033959;28;20220;-70
2020/12/10 07:29:27;;;;;;;12.27;6.18;;;3.80;99.90;;;;;;5034031;28;20210;-70
2020/12/10 07:31:53;;;;;;;14.05;6.40;;;3.70;99.90;;;;;;5033454;28;20242;-70
2020/12/10 07:34:20;;;;;;;24.55;6.85;;;3.50;99.90;;;;;;5033925;28;20208;-70
2020/12/10 07:36:48;;;;;;;15.10;7.03;;;3.50;99.90;;;;;;5033657;28;20211;-70
2020/12/10 07:39:26;;;;;;;14.63;6.78;;;3.50;99.90;;;;;;5037908;28;20622;-70
2020/12/10 07:41:54;;;;;;;15.55;6.80;;;3.40;99.90;;;;;;5037910;28;20605;-70
2020/12/10 07:44:25;;;;;;;14.15;6.07;;;3.30;99.90;;;;;;5038067;28;20210;-70
2020/12/10 07:46:52;;;;;;;16.10;6.50;;;3.30;99.90;;;;;;5037538;28;20218;-70
2020/12/10 07:49:24;;;;;;;12.02;5.40;;;3.20;99.90;;;;;;5037699;28;20196;-69
2020/12/10 07:52:02;;;;;;;13.85;6.00;;;3.20;99.90;;;;;;5037736;28;20235;-70
2020/12/10 07:54:40;;;;;;;12.45;6.85;;;3.10;99.90;;;;;;5037928;28;20203;-70
2020/12/10 07:57:13;;;;;;;13.57;5.25;;;3.10;99.90;;;;;;5037464;28;20199;-71
2020/12/10 07:59:45;;;;;;;16.50;6.32;;;3.30;99.90;;;;;;5037726;28;20210;-70
2020/12/10 08:02:16;;;;;;;8.32;5.20;;;3.40;99.90;;;;;;5037450;28;20238;-70
2020/12/10 08:04:43;;;;;;;15.70;6.57;;;3.40;99.90;;;;;;5037064;28;20770;-69
2020/12/10 08:07:13;;;;;;;11.05;6.88;;;3.40;99.90;;;;;;5037703;28;20214;-69
2020/12/10 08:09:39;;;;;;;14.23;6.28;;;3.50;99.90;;;;;;5037480;28;20200;-70
2020/12/10 08:12:13;;;;;;;11.57;5.50;;;3.60;99.90;;;;;;5039719;28;20596;-71
2020/12/10 08:14:40;;;;;;;14.52;5.93;;;3.60;99.90;;;;;;5038682;28;20282;-70
2020/12/10 08:17:18;;;;;;;11.05;6.25;;;3.70;99.90;;;;;;5036643;28;20639;-70
2020/12/10 08:19:54;;;;;;;17.25;6.68;;;3.80;99.90;;;;;;5056421;28;20287;-70
2020/12/10 08:22:23;;;;;;;15.07;6.57;;;3.70;99.90;;;;;;5057049;28;20223;-70
2020/12/10 08:24:50;;;;;;;12.50;6.13;;;3.80;99.90;;;;;;5056777;28;20214;-70
2020/12/10 08:27:18;;;;;;;12.80;6.68;;;3.90;99.90;;;;;;5056817;28;20242;-70
2020/12/10 08:29:58;;;;;;;10.90;6.50;;;3.80;99.90;;;;;;5056648;28;20242;-70
2020/12/10 08:32:25;;;;;;;14.63;7.45;;;3.90;99.90;;;;;;5042607;28;20224;-75
2020/12/10 08:35:02;;;;;;;15.07;5.90;;;3.90;99.90;;;;;;5035173;28;20204;-77
2020/12/10 08:37:37;;;;;;;14.85;6.55;;;4.00;99.90;;;;;;5032913;28;20250;-75
2020/12/10 08:40:04;;;;;;;13.35;5.85;;;4.10;99.90;;;;;;5035146;28;20204;-74
2020/12/10 08:42:30;;;;;;;19.63;8.02;;;4.20;99.90;;;;;;5035022;28;20697;-75
2020/12/10 08:44:56;;;;;;;13.55;6.25;;;4.30;99.90;;;;;;5034759;28;20196;-75
2020/12/10 08:47:24;;;;;;;14.35;7.10;;;4.20;99.90;;;;;;5035084;28;20845;-74
2020/12/10 08:50:05;;;;;;;18.60;7.38;;;4.10;99.90;;;;;;5032216;28;20197;-74
2020/12/10 08:52:33;;;;;;;12.10;6.88;;;4.20;99.90;;;;;;5032692;28;20299;-75
2020/12/10 08:54:59;;;;;;;12.68;6.80;;;4.30;99.90;;;;;;5035676;28;20295;-70
2020/12/10 08:57:25;;;;;;;16.02;7.88;;;4.40;99.90;;;;;;5036679;28;20210;-70
2020/12/10 08:59:51;;;;;;;13.15;6.50;;;4.40;99.90;;;;;;5036546;28;20211;-71
2020/12/10 09:02:18;;;;;;;18.48;6.82;;;4.40;99.90;;;;;;5036155;28;20224;-70
2020/12/10 09:04:44;;;;;;;10.93;6.00;;;4.40;99.90;;;;;;5036164;28;20296;-70
2020/12/10 09:07:11;;;;;;;11.57;6.22;;;4.50;99.90;;;;;;5036320;28;20204;-70
2020/12/10 09:09:38;;;;;;;10.48;5.85;;;4.50;99.90;;;;;;5036449;28;20219;-70
2020/12/10 09:12:05;;;;;;;15.05;6.45;;;4.60;99.90;;;;;;5035580;28;20251;-71
2020/12/10 09:14:31;;;;;;;17.17;6.63;;;4.60;99.90;;;;;;5035689;28;20208;-71
2020/12/10 09:16:57;;;;;;;13.68;6.90;;;4.60;99.90;;;;;;5036095;28;20200;-71
2020/12/10 09:19:24;;;;;;;17.17;6.88;;;4.60;99.90;;;;;;5035893;28;20231;-70
2020/12/10 09:21:50;;;;;;;13.35;6.90;;;4.60;99.90;;;;;;5036131;28;20369;-71
2020/12/10 09:24:17;;;;;;;16.70;7.50;;;4.60;99.90;;;;;;5036137;28;20720;-70
2020/12/10 09:26:44;;;;;;;14.73;7.82;;;4.50;99.90;;;;;;5035559;28;20208;-70
2020/12/10 09:29:11;;;;;;;11.02;5.82;;;4.40;99.90;;;;;;5035819;28;20207;-71
2020/12/10 09:31:37;;;;;;;15.25;6.10;;;4.60;99.90;;;;;;5035292;28;20240;-70
2020/12/10 09:34:04;;;;;;;11.93;6.43;;;4.60;99.90;;;;;;5036064;28;20215;-71
2020/12/10 09:36:30;;;;;;;9.32;5.13;;;4.80;99.90;;;;;;5035662;28;20291;-70
2020/12/10 09:38:56;;;;;;;8.65;5.00;;;5.00;99.90;;;;;;5035853;28;20219;-70
2020/12/10 09:41:23;;;;;;;9.73;4.68;;;5.10;99.90;;;;;;5035252;28;20217;-71
2020/12/10 09:43:51;;;;;;;12.38;4.60;;;5.10;99.90;;;;;;5035316;28;20224;-70
2020/12/10 09:46:17;;;;;;;12.05;5.50;;;5.30;99.90;;;;;;5034883;28;20685;-70
2020/12/10 09:48:43;;;;;;;9.75;5.32;;;5.30;99.90;;;;;;5035580;28;20299;-70
2020/12/10 09:51:11;;;;;;;7.15;4.30;;;5.30;99.90;;;;;;5035654;28;20300;-71
2020/12/10 09:53:40;;;;;;;11.60;4.78;;;5.30;99.90;;;;;;5035164;28;20220;-70
2020/12/10 09:58:41;;;;;;;8.73;4.70;;;5.20;99.90;;;;;;5035380;28;20313;-70
2020/12/10 10:01:12;;;;;;;11.30;4.90;;;5.10;99.90;;;;;;5034470;28;20200;-70
2020/12/10 10:03:38;;;;;;;15.02;5.22;;;5.10;99.90;;;;;;5034935;28;20224;-71
2020/12/10 10:06:05;;;;;;;10.60;5.55;;;5.20;99.90;;;;;;5034810;28;20571;-70
2020/12/10 10:08:32;;;;;;;11.63;5.05;;;5.30;99.90;;;;;;5034774;28;20651;-70
2020/12/10 10:10:59;;;;;;;12.20;4.97;;;5.30;99.90;;;;;;5034913;28;20570;-70
2020/12/10 10:13:25;;;;;;;9.52;5.45;;;5.30;99.90;;;;;;5034981;28;20686;-70
2020/12/10 10:15:51;;;;;;;10.25;4.32;;;5.20;99.90;;;;;;5034429;28;20204;-70
2020/12/10 10:18:22;;;;;;;12.57;6.15;;;5.20;99.90;;;;;;5034642;28;20230;-71
2020/12/10 10:20:48;;;;;;;11.00;5.40;;;5.10;99.90;;;;;;5034730;28;20200;-70
2020/12/10 10:23:15;;;;;;;9.93;5.13;;;5.10;99.90;;;;;;5034817;28;20319;-70
2020/12/10 10:25:41;;;;;;;7.15;4.70;;;5.10;99.90;;;;;;5034638;28;20532;-70
2020/12/10 10:28:08;;;;;;;14.93;6.18;;;5.20;99.90;;;;;;5034836;28;20200;-70
2020/12/10 10:30:34;;;;;;;10.80;5.85;;;5.30;99.90;;;;;;5034700;28;20215;-71
2020/12/10 10:33:00;;;;;;;10.90;4.95;;;5.50;99.90;;;;;;5034662;28;20335;-71
2020/12/10 10:35:28;;;;;;;13.88;5.57;;;5.50;99.90;;;;;;5034082;28;20204;-70
2020/12/10 10:37:54;;;;;;;11.88;6.00;;;5.30;99.90;;;;;;5034225;28;20310;-70
2020/12/10 10:40:20;;;;;;;12.60;5.95;;;5.00;99.90;;;;;;5034501;28;20210;-70
2020/12/10 10:42:47;;;;;;;11.55;6.05;;;4.80;99.90;;;;;;5034549;28;20227;-70
2020/12/10 10:45:13;;;;;;;15.73;6.82;;;4.70;99.90;;;;;;5034491;28;20214;-70
2020/12/10 10:47:40;;;;;;;10.30;5.07;;;4.50;99.90;;;;;;5034281;28;20685;-70
2020/12/10 10:50:06;;;;;;;8.80;4.90;;;4.70;99.90;;;;;;5034497;28;20211;-70
2020/12/10 10:52:33;;;;;;;11.85;5.78;;;4.80;99.90;;;;;;5034061;28;20228;-70
2020/12/10 10:54:59;;;;;;;12.55;6.18;;;4.70;99.90;;;;;;5033914;28;20674;-70
2020/12/10 10:57:26;;;;;;;8.95;5.00;;;4.80;99.90;;;;;;5034319;28;20226;-70
2020/12/10 10:59:52;;;;;;;13.48;6.70;;;4.80;99.90;;;;;;5034384;28;20211;-71
2020/12/10 11:02:19;;;;;;;11.35;4.93;;;5.00;99.90;;;;;;5033820;28;20224;-70
2020/12/10 11:04:45;;;;;;;9.50;5.18;;;5.10;99.90;;;;;;5033865;28;20215;-70
2020/12/10 11:07:11;;;;;;;13.23;5.50;;;4.90;99.90;;;;;;5033900;28;20290;-70
2020/12/10 11:09:39;;;;;;;14.07;5.53;;;5.00;99.90;;;;;;5033811;28;20200;-70
2020/12/10 11:12:06;;;;;;;11.60;6.05;;;5.10;99.90;;;;;;5033969;28;20230;-70
2020/12/10 11:14:32;;;;;;;11.13;5.97;;;5.20;99.90;;;;;;5034362;28;20211;-70
2020/12/10 11:16:58;;;;;;;10.48;5.50;;;5.30;99.90;;;;;;5034489;28;20675;-70
2020/12/10 11:19:25;;;;;;;9.18;5.05;;;5.20;99.90;;;;;;5033747;28;20231;-70
2020/12/10 11:21:51;;;;;;;12.15;5.90;;;5.20;99.90;;;;;;5033633;28;20333;-71
2020/12/10 11:24:17;;;;;;;8.75;5.78;;;5.20;99.90;;;;;;5033862;28;20204;-70
2020/12/10 11:26:45;;;;;;;11.02;5.30;;;5.20;99.90;;;;;;5033810;28;20204;-70
2020/12/10 11:29:11;;;;;;;11.52;5.68;;;5.40;99.90;;;;;;5033639;28;20207;-70
2020/12/10 11:31:37;;;;;;;18.40;6.50;;;5.40;99.90;;;;;;5033321;28;20222;-70
2020/12/10 11:34:04;;;;;;;13.15;5.78;;;5.30;99.90;;;;;;5033525;28;20688;-71
2020/12/10 11:36:30;;;;;;;12.40;6.80;;;5.40;99.90;;;;;;5033699;28;20681;-70
2020/12/10 11:38:56;;;;;;;9.02;6.10;;;5.40;99.90;;;;;;5033633;28;20229;-70
2020/12/10 11:41:23;;;;;;;10.77;4.78;;;5.30;99.90;;;;;;5033832;28;20215;-70
2020/12/10 11:43:50;;;;;;;12.50;6.05;;;4.90;99.90;;;;;;5033172;28;20782;-70
2020/12/10 11:46:16;;;;;;;8.48;5.38;;;5.00;99.90;;;;;;5033395;28;20215;-70
2020/12/10 11:48:42;;;;;;;9.48;5.20;;;4.90;99.90;;;;;;5033594;28;20206;-70
2020/12/10 11:51:09;;;;;;;12.48;5.30;;;4.90;99.90;;;;;;5033245;28;20303;-70
2020/12/10 11:53:36;;;;;;;9.63;4.85;;;4.90;99.90;;;;;;5033425;28;20591;-70
2020/12/10 11:56:03;;;;;;;10.27;6.05;;;4.90;99.90;;;;;;5033126;28;20210;-70
2020/12/10 11:58:31;;;;;;;7.97;4.50;;;5.00;99.90;;;;;;5033775;28;20230;-70
2020/12/10 12:00:58;;;;;;;13.95;5.90;;;5.10;99.90;;;;;;5033104;28;20223;-71
2020/12/10 12:03:25;;;;;;;8.65;5.07;;;5.00;99.90;;;;;;5033040;28;20228;-71
2020/12/10 12:05:51;;;;;;;10.27;4.93;;;5.00;99.90;;;;;;5033045;28;20201;-70
2020/12/10 12:08:17;;;;;;;11.18;5.30;;;5.20;99.90;;;;;;5033368;28;20559;-71
2020/12/10 12:10:43;;;;;;;13.35;5.18;;;5.20;99.90;;;;;;5033043;28;20211;-71
2020/12/10 12:13:10;;;;;;;10.68;5.28;;;5.00;99.90;;;;;;5033697;28;20227;-70
2020/12/10 12:15:36;;;;;;;11.98;5.93;;;5.00;99.90;;;;;;5033190;28;20228;-70
2020/12/10 12:18:03;;;;;;;14.20;5.72;;;5.10;99.90;;;;;;5033202;28;20227;-71
2020/12/10 12:20:30;;;;;;;11.13;5.13;;;5.20;99.90;;;;;;5033350;28;20662;-71
2020/12/10 12:22:56;;;;;;;11.57;4.93;;;5.10;99.90;;;;;;5033252;28;20228;-70
2020/12/10 12:25:22;;;;;;;13.75;6.50;;;5.20;99.90;;;;;;5036852;28;20204;-71
2020/12/10 12:27:49;;;;;;;13.13;6.53;;;5.20;99.90;;;;;;5037469;28;20243;-71
2020/12/10 12:30:15;;;;;;;10.68;4.90;;;5.30;99.90;;;;;;5036837;28;20200;-70
2020/12/10 12:32:41;;;;;;;10.68;4.78;;;5.20;99.90;;;;;;5036705;28;20227;-70
2020/12/10 12:35:11;;;;;;;9.70;5.28;;;5.20;99.90;;;;;;5036569;28;20200;-70
2020/12/10 12:37:37;;;;;;;11.70;5.68;;;5.10;99.90;;;;;;5036871;28;20211;-70
2020/12/10 12:40:04;;;;;;;11.70;5.93;;;5.20;99.90;;;;;;5036345;28;20612;-70
2020/12/10 12:42:30;;;;;;;13.77;5.30;;;5.20;99.90;;;;;;5037032;28;20570;-70
2020/12/10 12:44:57;;;;;;;10.57;5.68;;;5.30;99.90;;;;;;5036435;28;20659;-70
2020/12/10 12:47:23;;;;;;;13.00;6.00;;;5.40;99.90;;;;;;5036684;28;20212;-70
2020/12/10 12:49:49;;;;;;;14.23;6.20;;;5.50;99.90;;;;;;5036847;28;20196;-70
2020/12/10 12:52:16;;;;;;;11.00;5.78;;;5.40;99.90;;;;;;5036071;28;20784;-70